Time;durP1;ratioP1;P1;durP2;ratioP2;P2;SDS_P1;SDS_P2;PMS_P1;PMS_P2;Temp;Humidity;BMP_temperature;BMP_pressure;BME280_temperature;BME280_humidity;BME280_pressure;Samples;Min_cycle;Max_cycle;Signal;HPM_P1;HPM_P2
2023/07/27 00:00:19;;;;;;;0.60;0.60;;;;;;;;;;10243654;28;20257;-73
2023/07/27 00:05:20;;;;;;;0.50;0.50;;;;;;;;;;10246695;28;21272;-73
2023/07/27 00:10:23;;;;;;;0.68;0.68;;;;;;;;;;10235467;28;20267;-72
2023/07/27 00:15:25;;;;;;;0.55;0.55;;;;;;;;;;10233173;28;20224;-75
2023/07/27 00:20:26;;;;;;;0.50;0.50;;;;;;;;;;10248011;28;20227;-74
2023/07/27 00:25:27;;;;;;;0.40;0.40;;;;;;;;;;10243227;28;21169;-70
2023/07/27 00:30:28;;;;;;;0.70;0.70;;;;;;;;;;10241849;28;20227;-74
2023/07/27 00:35:29;;;;;;;1.02;1.02;;;;;;;;;;10210895;28;20227;-72
2023/07/27 00:40:30;;;;;;;1.20;0.77;;;;;;;;;;10241327;28;20230;-73
2023/07/27 00:45:31;;;;;;;3.13;1.05;;;;;;;;;;10243563;28;20235;-73
2023/07/27 00:50:35;;;;;;;0.63;0.63;;;;;;;;;;10249069;28;21569;-73
2023/07/27 00:55:36;;;;;;;0.52;0.52;;;;;;;;;;10213586;28;20276;-72
2023/07/27 01:00:38;;;;;;;0.70;0.70;;;;;;;;;;10226711;28;20227;-74
2023/07/27 01:05:39;;;;;;;1.48;1.02;;;;;;;;;;10239317;28;20388;-74
2023/07/27 01:10:46;;;;;;;0.60;0.60;;;;;;;;;;10244713;28;21723;-73
2023/07/27 01:15:51;;;;;;;0.80;0.75;;;;;;;;;;10253471;28;20258;-74
2023/07/27 01:21:07;;;;;;;0.98;0.60;;;;;;;;;;10235764;28;20257;-74
2023/07/27 01:26:26;;;;;;;0.45;0.45;;;;;;;;;;10245568;28;20348;-74
2023/07/27 01:31:30;;;;;;;0.50;0.50;;;;;;;;;;10254232;28;21118;-72
2023/07/27 01:36:35;;;;;;;0.70;0.70;;;;;;;;;;10250095;28;20219;-73
2023/07/27 01:41:41;;;;;;;0.50;0.50;;;;;;;;;;10233981;28;20282;-74
2023/07/27 01:46:43;;;;;;;0.95;0.95;;;;;;;;;;10222053;28;20705;-71
2023/07/27 01:51:46;;;;;;;1.42;0.70;;;;;;;;;;10235188;28;20220;-75
2023/07/27 01:56:47;;;;;;;0.65;0.50;;;;;;;;;;10247714;28;21748;-72
2023/07/27 02:01:53;;;;;;;0.40;0.40;;;;;;;;;;10236050;28;20223;-73
2023/07/27 02:06:54;;;;;;;0.57;0.57;;;;;;;;;;10253483;28;21523;-73
2023/07/27 02:11:56;;;;;;;0.47;0.47;;;;;;;;;;10219683;28;20286;-73
2023/07/27 02:16:59;;;;;;;1.55;0.40;;;;;;;;;;10256703;28;20234;-73
2023/07/27 02:22:01;;;;;;;0.70;0.70;;;;;;;;;;10257826;28;21198;-73
2023/07/27 02:27:02;;;;;;;0.50;0.50;;;;;;;;;;10255801;28;20227;-75
2023/07/27 02:32:03;;;;;;;0.77;0.77;;;;;;;;;;10254483;28;20255;-74
2023/07/27 02:37:05;;;;;;;0.43;0.43;;;;;;;;;;10262330;28;20211;-75
2023/07/27 02:42:06;;;;;;;0.22;0.22;;;;;;;;;;10241527;28;20357;-74
2023/07/27 02:47:07;;;;;;;0.40;0.40;;;;;;;;;;10249172;28;20350;-74
2023/07/27 02:52:08;;;;;;;0.75;0.75;;;;;;;;;;10239062;28;20334;-74
2023/07/27 02:57:10;;;;;;;0.60;0.60;;;;;;;;;;10245059;28;20220;-74
2023/07/27 03:02:18;;;;;;;0.55;0.55;;;;;;;;;;10248184;28;21905;-73
2023/07/27 03:07:19;;;;;;;0.55;0.55;;;;;;;;;;10252768;28;20232;-73
2023/07/27 03:12:20;;;;;;;0.50;0.50;;;;;;;;;;10236962;28;20247;-76
2023/07/27 03:17:21;;;;;;;0.63;0.63;;;;;;;;;;10237765;28;21144;-72
2023/07/27 03:22:22;;;;;;;0.50;0.50;;;;;;;;;;10244860;28;20223;-74
2023/07/27 03:27:23;;;;;;;0.60;0.60;;;;;;;;;;10241579;28;20729;-75
2023/07/27 03:32:24;;;;;;;1.48;1.38;;;;;;;;;;10247825;28;20219;-73
2023/07/27 03:37:25;;;;;;;0.93;0.93;;;;;;;;;;10243108;28;20225;-74
2023/07/27 03:42:27;;;;;;;0.57;0.57;;;;;;;;;;10244011;28;20224;-73
2023/07/27 03:47:28;;;;;;;0.73;0.73;;;;;;;;;;10249332;28;20786;-73
2023/07/27 03:52:29;;;;;;;0.50;0.50;;;;;;;;;;10226758;28;20296;-73
2023/07/27 03:57:31;;;;;;;0.40;0.40;;;;;;;;;;10237831;28;20238;-75
2023/07/27 04:02:32;;;;;;;0.65;0.65;;;;;;;;;;10243611;28;20228;-74
2023/07/27 04:07:34;;;;;;;0.70;0.70;;;;;;;;;;10228153;28;20730;-75
2023/07/27 04:12:35;;;;;;;0.95;0.85;;;;;;;;;;10224083;28;21394;-74
2023/07/27 04:17:36;;;;;;;1.10;0.77;;;;;;;;;;10238240;28;20211;-75
2023/07/27 04:22:37;;;;;;;1.52;0.82;;;;;;;;;;10243463;28;20314;-74
2023/07/27 04:27:38;;;;;;;1.13;1.13;;;;;;;;;;10235601;28;20313;-75
2023/07/27 04:32:39;;;;;;;1.05;1.05;;;;;;;;;;10237562;28;20643;-75
2023/07/27 04:37:40;;;;;;;0.90;0.90;;;;;;;;;;10241790;28;20924;-76
2023/07/27 04:42:41;;;;;;;0.95;0.95;;;;;;;;;;10240566;28;20318;-75
2023/07/27 04:47:42;;;;;;;2.25;1.13;;;;;;;;;;10248376;28;20227;-76
2023/07/27 04:52:43;;;;;;;0.75;0.75;;;;;;;;;;10248524;28;21440;-75
2023/07/27 04:57:44;;;;;;;5.85;0.93;;;;;;;;;;10226148;28;20713;-74
2023/07/27 05:02:45;;;;;;;1.00;1.00;;;;;;;;;;10245745;28;20305;-73
2023/07/27 05:07:46;;;;;;;1.40;1.30;;;;;;;;;;10240626;28;20572;-74
2023/07/27 05:12:47;;;;;;;1.20;1.13;;;;;;;;;;10248425;28;20281;-73
2023/07/27 05:17:48;;;;;;;3.13;1.27;;;;;;;;;;10244133;28;20707;-74
2023/07/27 05:22:50;;;;;;;0.90;0.90;;;;;;;;;;10249153;28;20305;-76
2023/07/27 05:27:51;;;;;;;3.53;1.20;;;;;;;;;;10247949;28;20227;-75
2023/07/27 05:32:52;;;;;;;1.20;1.20;;;;;;;;;;10227811;28;20242;-78
2023/07/27 05:37:53;;;;;;;1.30;1.30;;;;;;;;;;10246162;28;20212;-78
2023/07/27 05:42:54;;;;;;;2.05;1.30;;;;;;;;;;10250208;28;20599;-78
2023/07/27 05:47:55;;;;;;;1.65;1.65;;;;;;;;;;10234009;28;20323;-77
2023/07/27 05:52:56;;;;;;;1.40;1.30;;;;;;;;;;10248370;28;20230;-76
2023/07/27 05:57:57;;;;;;;1.58;1.45;;;;;;;;;;10233582;28;20868;-77
2023/07/27 06:02:59;;;;;;;0.95;0.95;;;;;;;;;;10239138;28;20294;-75
2023/07/27 06:08:00;;;;;;;1.23;1.05;;;;;;;;;;10247698;28;20239;-75
2023/07/27 06:13:01;;;;;;;1.38;1.38;;;;;;;;;;10241760;28;20231;-76
2023/07/27 06:18:02;;;;;;;1.67;1.40;;;;;;;;;;10251693;28;20224;-76
2023/07/27 06:23:03;;;;;;;3.22;1.65;;;;;;;;;;10214842;28;20267;-75
2023/07/27 06:28:04;;;;;;;1.20;1.20;;;;;;;;;;10241416;28;20314;-75
2023/07/27 06:33:05;;;;;;;1.10;1.10;;;;;;;;;;10240691;28;20843;-75
2023/07/27 06:38:07;;;;;;;0.93;0.93;;;;;;;;;;10241932;28;20336;-76
2023/07/27 06:43:08;;;;;;;1.05;1.05;;;;;;;;;;10229582;28;20226;-76
2023/07/27 06:48:09;;;;;;;0.80;0.80;;;;;;;;;;10251756;28;21254;-75
2023/07/27 06:53:10;;;;;;;1.08;0.73;;;;;;;;;;10238629;28;21236;-75
2023/07/27 06:58:11;;;;;;;1.17;1.17;;;;;;;;;;10252670;28;20231;-77
2023/07/27 07:03:12;;;;;;;1.05;1.05;;;;;;;;;;10249040;28;20267;-76
2023/07/27 07:08:13;;;;;;;1.35;1.25;;;;;;;;;;10252174;28;21037;-74
2023/07/27 07:13:14;;;;;;;1.42;1.10;;;;;;;;;;10246849;28;20705;-76
2023/07/27 07:18:15;;;;;;;1.95;0.90;;;;;;;;;;10228612;28;20759;-73
2023/07/27 07:23:16;;;;;;;0.93;0.93;;;;;;;;;;10245789;28;21508;-75
2023/07/27 07:28:18;;;;;;;0.98;0.98;;;;;;;;;;10231950;28;20223;-75
2023/07/27 07:33:19;;;;;;;3.05;0.95;;;;;;;;;;10248411;28;20326;-75
2023/07/27 07:38:20;;;;;;;0.70;0.70;;;;;;;;;;10249172;28;20569;-75
2023/07/27 07:43:21;;;;;;;1.10;1.10;;;;;;;;;;10231902;28;20227;-75
2023/07/27 07:48:23;;;;;;;3.30;0.90;;;;;;;;;;10249920;28;20223;-73
2023/07/27 07:53:24;;;;;;;0.90;0.90;;;;;;;;;;10228957;28;20311;-76
2023/07/27 07:58:25;;;;;;;1.00;1.00;;;;;;;;;;10224519;28;20973;-75
2023/07/27 08:03:26;;;;;;;1.50;1.35;;;;;;;;;;10245214;28;20235;-75
2023/07/27 08:08:27;;;;;;;0.70;0.70;;;;;;;;;;10242518;28;20843;-74
2023/07/27 08:13:28;;;;;;;0.70;0.70;;;;;;;;;;10224141;28;20223;-75
2023/07/27 08:18:31;;;;;;;1.38;0.90;;;;;;;;;;10247952;28;20226;-74
2023/07/27 08:23:33;;;;;;;0.70;0.70;;;;;;;;;;10248535;28;20230;-75
2023/07/27 08:28:34;;;;;;;0.47;0.47;;;;;;;;;;10243315;28;20227;-76
2023/07/27 08:33:35;;;;;;;0.90;0.90;;;;;;;;;;10228898;28;20224;-75
2023/07/27 08:38:36;;;;;;;1.10;0.70;;;;;;;;;;10239922;28;20582;-74
2023/07/27 08:43:37;;;;;;;1.23;0.80;;;;;;;;;;10251584;28;20329;-75
2023/07/27 08:48:39;;;;;;;0.80;0.80;;;;;;;;;;10243085;28;21176;-75
2023/07/27 08:53:40;;;;;;;0.60;0.60;;;;;;;;;;10241923;28;20722;-75
2023/07/27 08:58:41;;;;;;;0.70;0.70;;;;;;;;;;10243445;28;22047;-75
2023/07/27 09:03:43;;;;;;;0.88;0.85;;;;;;;;;;10246234;28;20227;-75
2023/07/27 09:08:44;;;;;;;0.60;0.60;;;;;;;;;;10242501;28;20334;-76
2023/07/27 09:13:45;;;;;;;0.60;0.60;;;;;;;;;;10239609;28;20689;-74
2023/07/27 09:18:47;;;;;;;0.93;0.73;;;;;;;;;;10246230;28;22362;-76
2023/07/27 09:23:48;;;;;;;0.70;0.70;;;;;;;;;;10243158;28;22829;-75
2023/07/27 09:28:49;;;;;;;0.60;0.52;;;;;;;;;;10212299;28;21451;-77
2023/07/27 09:33:51;;;;;;;0.50;0.50;;;;;;;;;;10242956;28;20250;-75
2023/07/27 09:38:53;;;;;;;2.10;0.68;;;;;;;;;;10241285;28;20277;-74
2023/07/27 09:43:57;;;;;;;0.50;0.50;;;;;;;;;;10242246;28;21657;-74
2023/07/27 09:48:59;;;;;;;0.40;0.40;;;;;;;;;;10246582;28;20342;-74
2023/07/27 09:54:00;;;;;;;1.95;0.60;;;;;;;;;;10231696;28;20219;-75
2023/07/27 09:59:01;;;;;;;0.35;0.35;;;;;;;;;;10216871;28;20240;-74
2023/07/27 10:04:03;;;;;;;0.55;0.55;;;;;;;;;;10216340;28;20292;-75
2023/07/27 10:09:16;;;;;;;0.70;0.70;;;;;;;;;;10231925;28;20232;-75
2023/07/27 10:14:18;;;;;;;0.50;0.50;;;;;;;;;;10242503;28;20255;-76
2023/07/27 10:19:21;;;;;;;0.47;0.47;;;;;;;;;;10250939;28;20216;-74
2023/07/27 10:24:25;;;;;;;0.55;0.55;;;;;;;;;;10236578;28;20894;-75
2023/07/27 10:29:27;;;;;;;0.52;0.52;;;;;;;;;;10238371;28;20219;-75
2023/07/27 10:34:28;;;;;;;1.17;0.45;;;;;;;;;;10261117;28;20219;-74
2023/07/27 10:39:34;;;;;;;0.70;0.70;;;;;;;;;;10257691;28;20251;-76
2023/07/27 10:44:41;;;;;;;0.55;0.55;;;;;;;;;;10257071;28;20212;-74
2023/07/27 10:49:43;;;;;;;0.63;0.63;;;;;;;;;;10245352;28;20263;-76
2023/07/27 10:54:46;;;;;;;0.88;0.88;;;;;;;;;;10247381;28;21461;-75
2023/07/27 10:59:48;;;;;;;0.50;0.50;;;;;;;;;;10227976;28;21701;-75
2023/07/27 11:04:50;;;;;;;0.50;0.50;;;;;;;;;;10245936;28;20864;-75
2023/07/27 11:09:51;;;;;;;0.50;0.50;;;;;;;;;;10233762;28;20239;-76
2023/07/27 11:14:52;;;;;;;0.63;0.60;;;;;;;;;;10220359;28;20208;-75
2023/07/27 11:19:53;;;;;;;0.40;0.40;;;;;;;;;;10246441;28;20276;-75
2023/07/27 11:24:55;;;;;;;0.50;0.50;;;;;;;;;;10232007;28;20299;-75
2023/07/27 11:29:59;;;;;;;0.90;0.73;;;;;;;;;;10241858;28;20227;-76
2023/07/27 11:35:00;;;;;;;0.50;0.50;;;;;;;;;;10251122;28;20219;-76
2023/07/27 11:40:01;;;;;;;0.80;0.80;;;;;;;;;;10239592;28;20960;-76
2023/07/27 11:45:03;;;;;;;0.60;0.60;;;;;;;;;;10255350;28;20220;-75
2023/07/27 11:50:06;;;;;;;1.08;0.80;;;;;;;;;;10242448;28;20224;-74
2023/07/27 11:55:08;;;;;;;0.60;0.60;;;;;;;;;;10241883;28;20228;-75
2023/07/27 12:00:13;;;;;;;0.70;0.70;;;;;;;;;;10250246;28;20204;-74
2023/07/27 12:05:14;;;;;;;0.80;0.80;;;;;;;;;;10233786;28;20300;-74
2023/07/27 12:10:18;;;;;;;0.60;0.60;;;;;;;;;;10232889;28;20330;-75
2023/07/27 12:15:27;;;;;;;0.95;0.95;;;;;;;;;;10239581;28;20216;-76
2023/07/27 12:20:30;;;;;;;0.50;0.50;;;;;;;;;;10244297;28;22118;-75
2023/07/27 12:25:31;;;;;;;1.08;0.93;;;;;;;;;;10246376;28;20227;-74
2023/07/27 12:30:32;;;;;;;0.52;0.52;;;;;;;;;;10240891;28;20216;-74
2023/07/27 12:35:33;;;;;;;0.60;0.60;;;;;;;;;;10219117;28;20220;-73
2023/07/27 12:40:34;;;;;;;1.27;0.90;;;;;;;;;;10239947;28;21872;-74
2023/07/27 12:45:36;;;;;;;0.55;0.55;;;;;;;;;;10212150;28;21037;-74
2023/07/27 12:50:37;;;;;;;0.70;0.70;;;;;;;;;;10238325;28;20964;-74
2023/07/27 12:55:39;;;;;;;1.05;1.05;;;;;;;;;;10239817;28;20229;-75
2023/07/27 13:00:40;;;;;;;0.75;0.75;;;;;;;;;;10243669;28;20349;-75
2023/07/27 13:05:41;;;;;;;0.65;0.65;;;;;;;;;;10234196;28;20249;-75
2023/07/27 13:10:42;;;;;;;3.13;1.25;;;;;;;;;;10249821;28;20304;-75
2023/07/27 13:15:43;;;;;;;1.27;0.93;;;;;;;;;;10242635;28;20485;-76
2023/07/27 13:20:44;;;;;;;1.23;1.15;;;;;;;;;;10245612;28;20231;-75
2023/07/27 13:25:45;;;;;;;2.30;0.85;;;;;;;;;;10230923;28;20223;-75
2023/07/27 13:30:46;;;;;;;0.70;0.70;;;;;;;;;;10247938;28;20223;-76
2023/07/27 13:35:47;;;;;;;0.60;0.60;;;;;;;;;;10243961;28;20223;-74
2023/07/27 13:40:49;;;;;;;0.60;0.60;;;;;;;;;;10246984;28;20497;-75
2023/07/27 13:45:50;;;;;;;0.50;0.50;;;;;;;;;;10241910;28;20815;-75
2023/07/27 13:50:53;;;;;;;0.57;0.57;;;;;;;;;;10247276;28;20228;-76
2023/07/27 13:55:54;;;;;;;0.90;0.90;;;;;;;;;;10221220;28;20237;-77
2023/07/27 14:00:55;;;;;;;0.80;0.80;;;;;;;;;;10254170;28;20261;-77
2023/07/27 14:05:56;;;;;;;0.80;0.80;;;;;;;;;;10260783;28;20231;-78
2023/07/27 14:10:58;;;;;;;1.48;0.82;;;;;;;;;;10237220;28;20263;-78
2023/07/27 14:15:59;;;;;;;0.77;0.77;;;;;;;;;;10259260;28;20239;-77
2023/07/27 14:21:00;;;;;;;0.82;0.82;;;;;;;;;;10227748;28;20230;-76
2023/07/27 14:26:01;;;;;;;0.70;0.70;;;;;;;;;;10217982;28;20283;-77
2023/07/27 14:31:02;;;;;;;0.85;0.85;;;;;;;;;;10214496;28;20259;-77
2023/07/27 14:36:03;;;;;;;1.05;1.05;;;;;;;;;;10216142;28;20239;-76
2023/07/27 14:41:04;;;;;;;2.95;1.35;;;;;;;;;;10223677;28;20421;-76
2023/07/27 14:46:05;;;;;;;1.48;1.38;;;;;;;;;;10224211;28;20970;-77
2023/07/27 14:51:06;;;;;;;0.90;0.90;;;;;;;;;;10223014;28;22451;-77
2023/07/27 14:56:07;;;;;;;0.80;0.80;;;;;;;;;;10213980;28;20219;-77
2023/07/27 15:01:08;;;;;;;0.80;0.80;;;;;;;;;;10212522;28;20359;-75
2023/07/27 15:06:10;;;;;;;1.45;0.98;;;;;;;;;;10205092;28;20219;-78
2023/07/27 15:11:11;;;;;;;17.98;1.30;;;;;;;;;;10251895;28;20371;-77
2023/07/27 15:16:12;;;;;;;0.70;0.70;;;;;;;;;;10278421;28;20339;-74
2023/07/27 15:21:13;;;;;;;0.75;0.75;;;;;;;;;;10287363;28;20824;-74
2023/07/27 15:26:14;;;;;;;0.38;0.38;;;;;;;;;;10291092;28;20211;-74
2023/07/27 15:31:15;;;;;;;0.45;0.45;;;;;;;;;;10274870;28;20215;-75
2023/07/27 15:36:16;;;;;;;0.40;0.40;;;;;;;;;;10283661;28;21322;-75
2023/07/27 15:41:17;;;;;;;0.30;0.30;;;;;;;;;;10278941;28;20231;-75
2023/07/27 15:46:19;;;;;;;0.95;0.30;;;;;;;;;;10285886;28;20222;-75
2023/07/27 15:51:20;;;;;;;0.30;0.30;;;;;;;;;;10286495;28;20214;-75
2023/07/27 15:56:21;;;;;;;0.40;0.40;;;;;;;;;;10286717;28;20222;-73
2023/07/27 16:01:22;;;;;;;0.40;0.40;;;;;;;;;;10264792;28;20238;-74
2023/07/27 16:06:23;;;;;;;0.20;0.20;;;;;;;;;;10280880;28;21280;-77
2023/07/27 16:11:24;;;;;;;0.30;0.30;;;;;;;;;;10280674;28;20230;-74
2023/07/27 16:16:25;;;;;;;0.20;0.20;;;;;;;;;;10286315;28;20755;-75
2023/07/27 16:21:26;;;;;;;0.20;0.20;;;;;;;;;;10266101;28;20346;-75
2023/07/27 16:26:27;;;;;;;0.15;0.15;;;;;;;;;;10286328;28;20214;-73
2023/07/27 16:31:28;;;;;;;0.30;0.30;;;;;;;;;;10282041;28;20220;-73
2023/07/27 16:36:30;;;;;;;0.20;0.20;;;;;;;;;;10286928;28;20247;-74
2023/07/27 16:41:31;;;;;;;1.65;0.20;;;;;;;;;;10281928;28;22147;-75
2023/07/27 16:46:32;;;;;;;0.25;0.25;;;;;;;;;;10282718;28;20219;-74
2023/07/27 16:51:33;;;;;;;0.20;0.20;;;;;;;;;;10285954;28;20218;-75
2023/07/27 16:56:34;;;;;;;0.13;0.13;;;;;;;;;;10282133;28;20231;-76
2023/07/27 17:01:35;;;;;;;0.08;0.08;;;;;;;;;;10276648;28;20295;-75
2023/07/27 17:06:36;;;;;;;0.52;0.10;;;;;;;;;;10284132;28;20227;-75
2023/07/27 17:11:37;;;;;;;0.10;0.10;;;;;;;;;;10284103;28;20230;-74
2023/07/27 17:16:38;;;;;;;0.10;0.10;;;;;;;;;;10279780;28;20657;-77
2023/07/27 17:21:39;;;;;;;0.17;0.17;;;;;;;;;;10293433;28;20233;-74
2023/07/27 17:26:40;;;;;;;0.10;0.10;;;;;;;;;;10282699;28;20215;-73
2023/07/27 17:31:42;;;;;;;0.20;0.20;;;;;;;;;;10272873;28;20586;-74
2023/07/27 17:36:43;;;;;;;0.10;0.10;;;;;;;;;;10273059;28;20787;-75
2023/07/27 17:41:44;;;;;;;0.15;0.15;;;;;;;;;;10270234;28;20227;-76
2023/07/27 17:46:45;;;;;;;0.20;0.20;;;;;;;;;;10293808;28;20227;-75
2023/07/27 17:51:46;;;;;;;0.10;0.10;;;;;;;;;;10286577;28;20712;-74
2023/07/27 17:56:47;;;;;;;0.20;0.20;;;;;;;;;;10284012;28;20316;-74
2023/07/27 18:01:48;;;;;;;0.40;0.17;;;;;;;;;;10287830;28;20229;-75
2023/07/27 18:06:49;;;;;;;0.20;0.20;;;;;;;;;;10285981;28;21574;-76
2023/07/27 18:11:51;;;;;;;0.20;0.20;;;;;;;;;;10292940;28;20261;-76
2023/07/27 18:16:52;;;;;;;0.10;0.10;;;;;;;;;;10289499;28;20215;-76
2023/07/27 18:21:53;;;;;;;0.10;0.10;;;;;;;;;;10287464;28;20699;-75
2023/07/27 18:26:54;;;;;;;1.00;0.65;;;;;;;;;;10287672;28;20353;-76
2023/07/27 18:31:55;;;;;;;0.10;0.10;;;;;;;;;;10288528;28;20218;-76
2023/07/27 18:36:58;;;;;;;0.08;0.08;;;;;;;;;;10292200;28;21196;-77
2023/07/27 18:41:59;;;;;;;0.00;0.00;;;;;;;;;;10301621;28;20235;-78
2023/07/27 18:47:00;;;;;;;0.10;0.10;;;;;;;;;;10285059;28;22249;-75
2023/07/27 18:52:01;;;;;;;0.10;0.10;;;;;;;;;;10288706;28;20319;-74
2023/07/27 18:57:02;;;;;;;0.00;0.00;;;;;;;;;;10299120;28;20689;-76
2023/07/27 19:02:03;;;;;;;0.10;0.10;;;;;;;;;;10289708;28;20223;-76
2023/07/27 19:07:04;;;;;;;0.00;0.00;;;;;;;;;;10284940;28;20269;-76
2023/07/27 19:12:05;;;;;;;0.20;0.20;;;;;;;;;;10293273;28;21354;-76
2023/07/27 19:17:06;;;;;;;0.10;0.10;;;;;;;;;;10289737;28;20228;-75
2023/07/27 19:22:07;;;;;;;0.10;0.10;;;;;;;;;;10290410;28;21300;-74
2023/07/27 19:27:08;;;;;;;0.75;0.10;;;;;;;;;;10281570;28;20274;-75
2023/07/27 19:32:09;;;;;;;0.35;0.20;;;;;;;;;;10291138;28;20219;-74
2023/07/27 19:37:10;;;;;;;0.30;0.30;;;;;;;;;;10279424;28;20319;-74
2023/07/27 19:42:12;;;;;;;0.22;0.22;;;;;;;;;;10271941;28;20738;-77
2023/07/27 19:47:13;;;;;;;0.20;0.20;;;;;;;;;;10289389;28;20897;-75
2023/07/27 19:52:14;;;;;;;0.20;0.20;;;;;;;;;;10286878;28;20215;-74
2023/07/27 19:57:15;;;;;;;0.20;0.20;;;;;;;;;;10289047;28;20346;-74
2023/07/27 20:02:16;;;;;;;0.20;0.20;;;;;;;;;;10274140;28;20237;-75
2023/07/27 20:07:20;;;;;;;0.63;0.17;;;;;;;;;;10276710;28;20227;-75
2023/07/27 20:12:21;;;;;;;2.08;0.20;;;;;;;;;;10203088;28;20235;-73
2023/07/27 20:17:22;;;;;;;0.20;0.20;;;;;;;;;;10223326;28;20234;-75
2023/07/27 20:22:23;;;;;;;0.28;0.28;;;;;;;;;;10209941;28;20228;-75
2023/07/27 20:27:24;;;;;;;0.20;0.20;;;;;;;;;;10217288;28;20220;-76
2023/07/27 20:32:25;;;;;;;0.20;0.20;;;;;;;;;;10220612;28;20329;-74
2023/07/27 20:37:26;;;;;;;0.10;0.10;;;;;;;;;;10197856;28;20670;-76
2023/07/27 20:42:28;;;;;;;0.77;0.77;;;;;;;;;;10204198;28;22383;-76
2023/07/27 20:47:31;;;;;;;0.22;0.22;;;;;;;;;;10205874;28;20312;-75
2023/07/27 20:52:32;;;;;;;9.75;0.22;;;;;;;;;;10207141;28;20223;-77
2023/07/27 20:57:33;;;;;;;2.00;0.13;;;;;;;;;;10220900;28;20224;-73
2023/07/27 21:02:34;;;;;;;0.10;0.10;;;;;;;;;;10216396;28;20313;-75
2023/07/27 21:07:35;;;;;;;0.10;0.10;;;;;;;;;;10203270;28;20686;-74
2023/07/27 21:12:37;;;;;;;0.10;0.10;;;;;;;;;;10206067;28;20227;-75
2023/07/27 21:17:38;;;;;;;1.55;0.10;;;;;;;;;;10210276;28;20235;-76
2023/07/27 21:22:42;;;;;;;3.92;0.10;;;;;;;;;;10213538;28;20282;-74
2023/07/27 21:27:43;;;;;;;0.10;0.10;;;;;;;;;;10211856;28;20864;-75
2023/07/27 21:32:44;;;;;;;0.10;0.10;;;;;;;;;;10205556;28;21590;-74
2023/07/27 21:37:45;;;;;;;0.10;0.10;;;;;;;;;;10209161;28;20232;-75
2023/07/27 21:42:46;;;;;;;0.10;0.10;;;;;;;;;;10212460;28;20861;-76
2023/07/27 21:47:47;;;;;;;2.92;0.40;;;;;;;;;;10207767;28;20703;-74
2023/07/27 21:52:48;;;;;;;0.10;0.10;;;;;;;;;;10198459;28;20756;-74
2023/07/27 21:57:49;;;;;;;0.10;0.10;;;;;;;;;;10146813;28;20224;-74
2023/07/27 22:02:50;;;;;;;6.03;0.20;;;;;;;;;;10132381;28;21368;-76
2023/07/27 22:07:51;;;;;;;1.45;0.15;;;;;;;;;;10153850;28;20223;-76
2023/07/27 22:12:52;;;;;;;0.10;0.10;;;;;;;;;;10215751;28;21190;-75
2023/07/27 22:17:54;;;;;;;0.10;0.10;;;;;;;;;;10226016;28;20924;-75
2023/07/27 22:22:55;;;;;;;1.00;0.00;;;;;;;;;;10207934;28;20945;-75
2023/07/27 22:27:56;;;;;;;2.90;0.10;;;;;;;;;;10212632;28;20215;-75
2023/07/27 22:32:57;;;;;;;0.00;0.00;;;;;;;;;;10232181;28;20597;-76
2023/07/27 22:37:58;;;;;;;0.10;0.10;;;;;;;;;;10213560;28;20731;-77
2023/07/27 22:42:59;;;;;;;0.85;0.17;;;;;;;;;;10232209;28;20483;-73
2023/07/27 22:48:00;;;;;;;0.10;0.10;;;;;;;;;;10220405;28;21017;-75
2023/07/27 22:53:01;;;;;;;0.10;0.10;;;;;;;;;;10228246;28;20944;-75
2023/07/27 22:58:02;;;;;;;1.45;0.10;;;;;;;;;;10212143;28;20830;-75
2023/07/27 23:03:05;;;;;;;2.63;0.22;;;;;;;;;;10215937;28;21279;-76
2023/07/27 23:08:07;;;;;;;1.27;0.20;;;;;;;;;;10241912;28;20302;-73
2023/07/27 23:13:08;;;;;;;0.25;0.25;;;;;;;;;;10226901;28;20326;-72
2023/07/27 23:18:09;;;;;;;3.67;1.00;;;;;;;;;;10221469;28;21737;-74
2023/07/27 23:23:10;;;;;;;0.60;0.60;;;;;;;;;;10225666;28;20246;-73
2023/07/27 23:28:11;;;;;;;0.40;0.40;;;;;;;;;;10227231;28;20337;-73
2023/07/27 23:33:12;;;;;;;1.98;0.52;;;;;;;;;;10232422;28;20215;-75
2023/07/27 23:38:14;;;;;;;0.40;0.40;;;;;;;;;;10228996;28;20697;-74
2023/07/27 23:43:15;;;;;;;0.47;0.47;;;;;;;;;;10206996;28;20230;-73
2023/07/27 23:48:16;;;;;;;0.38;0.38;;;;;;;;;;10219999;28;22055;-74
2023/07/27 23:53:17;;;;;;;0.45;0.45;;;;;;;;;;10228278;28;21086;-73
2023/07/27 23:58:18;;;;;;;0.50;0.50;;;;;;;;;;10224927;28;21029;-71
